createdAt,value
2022-08-05T00:02:11.662Z,10.39
2022-08-05T00:04:40.374Z,10.58
2022-08-05T00:07:27.206Z,10.70
2022-08-05T00:09:58.717Z,10.84
2022-08-05T00:12:26.726Z,10.95
2022-08-05T00:14:54.676Z,11.07
2022-08-05T00:17:23.602Z,11.15
2022-08-05T00:20:01.816Z,11.39
2022-08-05T00:22:32.035Z,11.54
2022-08-05T00:25:02.979Z,11.71
2022-08-05T00:27:36.730Z,11.75
2022-08-05T00:30:11.705Z,11.65
2022-08-05T00:32:40.646Z,11.53
2022-08-05T00:35:09.448Z,11.33
2022-08-05T00:37:53.454Z,11.38
2022-08-05T00:40:28.308Z,11.59
2022-08-05T00:43:07.703Z,11.86
2022-08-05T00:45:38.619Z,12.15
2022-08-05T00:48:18.831Z,12.39
2022-08-05T00:50:59.468Z,12.62
2022-08-05T00:53:44.981Z,12.85
2022-08-05T00:56:22.703Z,13.03
2022-08-05T00:58:52.087Z,13.21
2022-08-05T01:01:42.091Z,13.54
2022-08-05T01:04:13.638Z,13.82
2022-08-05T01:06:43.744Z,14.06
2022-08-05T01:09:19.978Z,14.27
2022-08-05T01:11:51.916Z,14.45
2022-08-05T01:14:42.783Z,14.65
2022-08-05T01:17:15.172Z,14.79
2022-08-05T01:20:01.915Z,15.00
2022-08-05T01:23:14.339Z,15.17
2022-08-05T01:26:07.413Z,15.36
2022-08-05T01:29:05.026Z,15.59
2022-08-05T01:31:55.899Z,15.77
2022-08-05T01:34:37.198Z,16.00
2022-08-05T01:37:18.092Z,16.25
2022-08-05T01:39:59.031Z,16.46
2022-08-05T01:42:30.160Z,16.64
2022-08-05T01:45:02.420Z,16.77
2022-08-05T01:47:39.596Z,17.00
2022-08-05T01:50:28.758Z,17.14
2022-08-05T01:53:02.202Z,17.24
2022-08-05T01:55:36.091Z,17.23
2022-08-05T01:58:15.802Z,17.25
2022-08-05T02:00:53.259Z,17.29
2022-08-05T02:03:31.920Z,17.35
2022-08-05T02:06:37.441Z,17.50
2022-08-05T02:08:57.935Z,17.62
2022-08-05T02:11:59.650Z,17.63
2022-08-05T02:14:41.291Z,17.65
2022-08-05T02:18:27.583Z,17.73
2022-08-05T02:20:22.623Z,17.92
2022-08-05T02:23:06.363Z,18.03
2022-08-05T02:25:49.253Z,18.07
2022-08-05T02:28:29.083Z,18.21
2022-08-05T02:31:04.110Z,18.31
2022-08-05T02:33:39.886Z,18.39
2022-08-05T02:36:15.597Z,18.47
2022-08-05T02:38:53.613Z,18.53
2022-08-05T02:41:28.307Z,18.42
2022-08-05T02:44:13.142Z,18.53
2022-08-05T02:46:59.810Z,18.60
2022-08-05T02:49:37.143Z,18.72
2022-08-05T02:52:25.915Z,18.85
2022-08-05T02:55:05.622Z,18.96
2022-08-05T02:58:19.843Z,19.06
2022-08-05T03:00:30.120Z,19.17
2022-08-05T03:02:59.552Z,19.26
2022-08-05T03:06:57.245Z,19.44
2022-08-05T03:08:26.949Z,19.49
2022-08-05T03:11:01.122Z,19.73
2022-08-05T03:14:03.063Z,19.77
2022-08-05T03:16:31.863Z,19.70
2022-08-05T03:19:16.919Z,19.88
2022-08-05T03:21:48.783Z,20.06
2022-08-05T03:24:27.550Z,20.29
2022-08-05T03:26:59.768Z,20.47
2022-08-05T03:29:44.718Z,20.61
2022-08-05T03:32:17.066Z,20.74
2022-08-05T03:34:51.145Z,20.69
2022-08-05T03:37:22.624Z,20.80
2022-08-05T03:40:01.859Z,20.92
2022-08-05T03:42:41.603Z,21.07
2022-08-05T03:45:23.685Z,21.15
2022-08-05T03:47:57.155Z,21.36
2022-08-05T03:50:37.336Z,21.50
2022-08-05T03:55:50.339Z,21.45
2022-08-05T03:56:44.142Z,21.30
2022-08-05T03:59:47.000Z,21.25
2022-08-05T04:02:38.257Z,21.54
2022-08-05T04:05:14.482Z,21.82
2022-08-05T04:07:57.144Z,21.96
2022-08-05T04:10:37.604Z,22.11
2022-08-05T04:13:08.885Z,22.14
2022-08-05T04:16:02.889Z,22.27
2022-08-05T04:18:29.611Z,22.45
2022-08-05T04:20:58.747Z,22.57
2022-08-05T04:24:05.200Z,22.62
2022-08-05T04:26:17.381Z,22.85
2022-08-05T04:28:50.849Z,22.92
2022-08-05T04:31:39.949Z,23.07
2022-08-05T04:34:31.783Z,23.24
2022-08-05T04:36:56.518Z,23.26
2022-08-05T04:39:24.897Z,23.39
2022-08-05T04:41:56.124Z,23.42
2022-08-05T04:44:30.282Z,23.43
2022-08-05T04:46:59.875Z,23.48
2022-08-05T04:50:01.574Z,23.52
2022-08-05T04:52:27.704Z,23.68
2022-08-05T04:54:57.803Z,23.71
2022-08-05T04:57:29.016Z,23.72
2022-08-05T05:00:00.074Z,23.89
2022-08-05T05:02:36.230Z,23.90
2022-08-05T05:05:16.483Z,23.90
2022-08-05T05:08:01.840Z,24.12
2022-08-05T05:10:39.427Z,24.01
2022-08-05T05:13:18.256Z,24.11
2022-08-05T05:15:56.494Z,24.12
2022-08-05T05:18:34.176Z,23.97
2022-08-05T05:21:04.284Z,23.95
2022-08-05T05:24:03.009Z,23.82
2022-08-05T05:26:33.119Z,24.02
2022-08-05T05:29:02.302Z,24.04
2022-08-05T05:34:02.613Z,23.27
2022-08-05T05:36:32.991Z,23.71
2022-08-05T05:39:05.616Z,23.89
2022-08-05T05:41:40.696Z,23.69
2022-08-05T05:44:35.980Z,23.63
2022-08-05T05:47:04.314Z,23.64
2022-08-05T05:49:41.371Z,23.57
2022-08-05T05:52:13.069Z,23.89
2022-08-05T05:54:56.437Z,23.91
2022-08-05T05:57:26.946Z,24.00
2022-08-05T06:00:14.573Z,24.01
2022-08-05T06:02:44.371Z,23.92
2022-08-05T06:05:16.643Z,23.93
2022-08-05T06:07:57.933Z,23.59
2022-08-05T06:10:36.357Z,23.40
2022-08-05T06:13:07.455Z,23.35
2022-08-05T06:16:28.517Z,23.21
2022-08-05T06:18:31.051Z,23.10
2022-08-05T06:21:00.518Z,23.04
2022-08-05T06:23:43.664Z,23.03
2022-08-05T06:26:21.250Z,23.09
2022-08-05T06:28:52.294Z,23.09
2022-08-05T06:31:22.073Z,22.98
2022-08-05T06:34:07.716Z,22.95
2022-08-05T06:36:57.523Z,23.06
2022-08-05T06:39:28.199Z,22.94
2022-08-05T06:42:06.083Z,22.91
2022-08-05T06:44:34.226Z,22.88
2022-08-05T06:47:02.472Z,22.83
2022-08-05T06:50:00.025Z,22.84
2022-08-05T06:52:37.088Z,22.60
2022-08-05T06:55:08.097Z,22.71
2022-08-05T06:58:02.558Z,22.77
2022-08-05T07:00:25.790Z,22.71
2022-08-05T07:02:54.418Z,22.70
2022-08-05T07:05:36.869Z,22.74
2022-08-05T07:08:06.162Z,22.85
2022-08-05T07:10:52.373Z,23.02
2022-08-05T07:13:59.228Z,23.17
2022-08-05T07:17:56.618Z,23.17
2022-08-05T07:22:31.512Z,23.33
2022-08-05T07:25:22.995Z,23.37
2022-08-05T07:27:58.399Z,23.42
2022-08-05T07:30:39.767Z,23.36
2022-08-05T07:33:16.403Z,23.41
2022-08-05T07:36:01.624Z,23.39
2022-08-05T07:38:43.259Z,23.33
2022-08-05T07:42:08.806Z,23.21
2022-08-05T07:44:18.564Z,23.25
2022-08-05T07:46:50.107Z,23.37
2022-08-05T07:49:20.421Z,23.43
2022-08-05T07:51:54.255Z,23.29
2022-08-05T07:54:31.373Z,22.97
2022-08-05T07:57:22.860Z,22.61
2022-08-05T07:59:52.369Z,22.57
2022-08-05T08:02:30.967Z,22.77
2022-08-05T08:05:15.195Z,23.03
2022-08-05T08:07:59.784Z,23.16
2022-08-05T08:10:30.327Z,23.36
2022-08-05T08:13:01.613Z,23.56
2022-08-05T08:16:33.421Z,23.84
2022-08-05T08:18:20.800Z,23.85
2022-08-05T08:21:02.390Z,23.88
2022-08-05T08:24:02.531Z,23.79
2022-08-05T08:26:26.962Z,23.88
2022-08-05T08:29:09.771Z,23.68
2022-08-05T08:31:48.558Z,23.33
2022-08-05T08:34:29.856Z,23.05
2022-08-05T08:37:03.229Z,22.60
2022-08-05T08:39:37.607Z,22.58
2022-08-05T08:42:10.767Z,22.50
2022-08-05T08:45:17.974Z,22.47
2022-08-05T08:48:12.590Z,22.49
2022-08-05T08:51:21.967Z,22.36
2022-08-05T08:53:40.217Z,22.45
2022-08-05T08:56:14.222Z,22.46
2022-08-05T08:58:47.893Z,22.50
2022-08-05T09:01:19.677Z,22.46
2022-08-05T09:03:54.373Z,22.47
2022-08-05T09:06:29.684Z,22.38
2022-08-05T09:09:03.516Z,22.52
2022-08-05T09:11:53.108Z,22.66
2022-08-05T09:14:56.938Z,22.60
2022-08-05T09:17:42.985Z,22.80
2022-08-05T09:20:08.582Z,22.86
2022-08-05T09:23:07.960Z,22.98
2022-08-05T09:26:01.558Z,23.08
2022-08-05T09:28:34.480Z,22.99
2022-08-05T09:31:43.443Z,23.01
2022-08-05T09:34:00.147Z,22.89
2022-08-05T09:36:54.475Z,22.91
2022-08-05T09:39:39.518Z,22.97
2022-08-05T09:42:24.208Z,22.75
2022-08-05T09:45:03.393Z,22.96
2022-08-05T09:47:55.372Z,23.05
2022-08-05T09:50:44.427Z,23.02
2022-08-05T09:53:23.160Z,22.95
2022-08-05T09:56:03.917Z,22.89
2022-08-05T09:58:33.499Z,22.99
2022-08-05T10:01:15.310Z,22.92
2022-08-05T10:04:02.258Z,22.96
2022-08-05T10:06:32.807Z,22.89
2022-08-05T10:09:27.713Z,22.90
2022-08-05T10:12:18.825Z,22.82
2022-08-05T10:15:20.383Z,22.74
2022-08-05T10:18:06.408Z,22.64
2022-08-05T10:20:48.392Z,22.59
2022-08-05T10:23:56.113Z,22.56
2022-08-05T10:26:32.312Z,22.38
2022-08-05T10:29:00.853Z,22.31
2022-08-05T10:32:52.142Z,22.10
2022-08-05T10:34:18.424Z,22.07
2022-08-05T10:36:54.155Z,21.99
2022-08-05T10:40:04.119Z,21.98
2022-08-05T10:42:33.854Z,21.95
2022-08-05T10:45:20.879Z,22.13
2022-08-05T10:48:30.158Z,22.36
2022-08-05T10:51:22.437Z,22.62
2022-08-05T10:53:55.815Z,22.71
2022-08-05T10:56:28.665Z,22.65
2022-08-05T10:59:07.120Z,22.59
2022-08-05T11:01:54.487Z,22.53
2022-08-05T11:04:31.190Z,22.46
2022-08-05T11:07:07.905Z,22.52
2022-08-05T11:10:10.083Z,22.47
2022-08-05T11:12:54.361Z,22.40
2022-08-05T11:15:59.582Z,22.33
2022-08-05T11:18:32.590Z,22.30
2022-08-05T11:21:11.176Z,22.27
2022-08-05T11:24:05.689Z,22.36
2022-08-05T11:26:53.515Z,22.42
2022-08-05T11:29:43.397Z,22.19
2022-08-05T11:32:29.712Z,22.51
2022-08-05T11:34:59.564Z,22.48
2022-08-05T11:38:26.447Z,22.58
2022-08-05T11:42:01.648Z,22.57
2022-08-05T11:44:52.791Z,22.45
2022-08-05T11:47:48.220Z,22.32
2022-08-05T11:50:18.333Z,22.36
2022-08-05T11:52:53.107Z,22.53
2022-08-05T11:55:58.812Z,22.59
2022-08-05T11:58:40.589Z,22.52
2022-08-05T12:01:11.219Z,22.44
2022-08-05T12:03:44.694Z,22.29
2022-08-05T12:06:30.531Z,22.37
2022-08-05T12:08:59.961Z,22.37
2022-08-05T12:11:39.725Z,22.21
2022-08-05T12:14:12.480Z,22.27
2022-08-05T12:16:50.950Z,21.86
2022-08-05T12:20:16.745Z,22.20
2022-08-05T12:22:13.382Z,22.19
2022-08-05T12:24:57.592Z,22.18
2022-08-05T12:27:33.383Z,22.14
2022-08-05T12:30:05.541Z,22.17
2022-08-05T12:32:35.989Z,22.12
2022-08-05T12:35:08.712Z,22.04
2022-08-05T12:37:38.063Z,21.91
2022-08-05T12:40:11.306Z,21.75
2022-08-05T12:42:56.915Z,21.95
2022-08-05T12:45:48.336Z,21.82
2022-08-05T12:48:32.509Z,21.72
2022-08-05T12:52:11.158Z,21.58
2022-08-05T12:54:03.651Z,21.50
2022-08-05T12:56:35.430Z,21.48
2022-08-05T13:00:08.265Z,21.58
2022-08-05T13:02:30.557Z,21.58
2022-08-05T13:04:59.195Z,21.45
2022-08-05T13:07:57.453Z,21.28
2022-08-05T13:10:21.481Z,21.23
2022-08-05T13:12:51.322Z,21.14
2022-08-05T13:15:41.414Z,20.95
2022-08-05T13:18:19.786Z,20.91
2022-08-05T13:20:50.261Z,20.83
2022-08-05T13:23:22.770Z,20.77
2022-08-05T13:25:59.468Z,20.73
2022-08-05T13:28:32.261Z,20.68
2022-08-05T13:31:11.112Z,20.64
2022-08-05T13:34:21.627Z,20.59
2022-08-05T13:36:32.360Z,20.52
2022-08-05T13:39:02.931Z,20.45
2022-08-05T13:41:51.844Z,20.32
2022-08-05T13:44:30.564Z,20.29
2022-08-05T13:47:02.382Z,20.23
2022-08-05T13:49:35.312Z,20.13
2022-08-05T13:52:13.318Z,20.09
2022-08-05T13:54:42.194Z,20.05
2022-08-05T13:57:11.747Z,19.98
2022-08-05T14:02:49.211Z,19.86
2022-08-05T14:05:29.158Z,19.41
2022-08-05T14:08:05.918Z,19.54
2022-08-05T14:10:47.299Z,19.41
2022-08-05T14:16:11.430Z,19.38
2022-08-05T14:18:40.054Z,19.28
2022-08-05T14:22:07.751Z,19.14
2022-08-05T14:24:00.675Z,18.92
2022-08-05T14:26:35.589Z,18.79
2022-08-05T14:29:18.266Z,18.70
2022-08-05T14:32:27.177Z,18.39
2022-08-05T14:34:56.711Z,18.36
2022-08-05T14:37:45.574Z,18.33
2022-08-05T14:40:16.924Z,18.22
2022-08-05T14:42:46.122Z,18.10
2022-08-05T14:45:17.311Z,17.87
2022-08-05T14:48:05.295Z,17.81
2022-08-05T14:50:39.905Z,17.79
2022-08-05T14:53:09.604Z,17.71
2022-08-05T14:55:39.108Z,17.55
2022-08-05T14:58:12.134Z,17.58
2022-08-05T15:00:58.868Z,17.35
2022-08-05T15:03:34.149Z,17.34
2022-08-05T15:06:14.856Z,17.04
2022-08-05T15:09:01.562Z,17.06
2022-08-05T15:11:52.674Z,16.90
2022-08-05T15:14:34.837Z,16.90
2022-08-05T15:17:44.422Z,16.72
2022-08-05T15:20:00.220Z,16.74
2022-08-05T15:22:28.713Z,16.67
2022-08-05T15:25:13.713Z,16.59
2022-08-05T15:27:52.112Z,16.38
2022-08-05T15:30:22.267Z,16.28
2022-08-05T15:32:50.755Z,16.32
2022-08-05T15:35:19.076Z,16.23
2022-08-05T15:38:33.494Z,16.18
2022-08-05T15:41:01.609Z,16.10
2022-08-05T15:43:28.349Z,15.81
2022-08-05T15:46:00.347Z,15.76
2022-08-05T15:48:30.908Z,15.74
2022-08-05T15:50:59.163Z,15.74
2022-08-05T15:53:38.589Z,15.67
2022-08-05T15:56:21.358Z,15.56
2022-08-05T15:58:49.916Z,15.53
2022-08-05T16:01:19.477Z,15.46
2022-08-05T16:03:50.438Z,15.41
2022-08-05T16:06:22.928Z,15.35
2022-08-05T16:08:53.776Z,15.28
2022-08-05T16:11:42.545Z,15.20
2022-08-05T16:14:17.518Z,15.12
2022-08-05T16:16:49.272Z,15.08
2022-08-05T16:19:25.296Z,15.03
2022-08-05T16:22:10.698Z,14.97
2022-08-05T16:24:51.605Z,14.86
2022-08-05T16:27:46.923Z,14.80
2022-08-05T16:30:29.067Z,14.74
2022-08-05T16:32:59.132Z,14.67
2022-08-05T16:35:33.699Z,14.59
2022-08-05T16:38:18.834Z,14.52
2022-08-05T16:41:00.088Z,14.47
2022-08-05T16:43:32.417Z,14.43
2022-08-05T16:46:12.875Z,14.35
2022-08-05T16:48:51.281Z,14.31
2022-08-05T16:51:19.506Z,14.28
2022-08-05T16:54:06.229Z,14.21
2022-08-05T16:56:37.544Z,14.16
2022-08-05T16:59:11.925Z,14.10
2022-08-05T17:01:53.650Z,14.06
2022-08-05T17:04:28.490Z,14.00
2022-08-05T17:07:01.596Z,13.96
2022-08-05T17:09:38.887Z,13.89
2022-08-05T17:12:22.769Z,13.83
2022-08-05T17:15:15.780Z,13.78
2022-08-05T17:17:54.424Z,13.67
2022-08-05T17:20:25.227Z,13.72
2022-08-05T17:22:55.777Z,13.64
2022-08-05T17:25:34.086Z,13.76
2022-08-05T17:28:09.295Z,13.72
2022-08-05T17:30:50.724Z,13.65
2022-08-05T17:33:21.234Z,13.57
2022-08-05T17:36:08.111Z,13.51
2022-08-05T17:38:39.887Z,13.46
2022-08-05T17:41:11.724Z,13.43
2022-08-05T17:43:57.449Z,13.35
2022-08-05T17:46:27.006Z,13.26
2022-08-05T17:48:55.946Z,13.17
2022-08-05T17:51:26.059Z,13.13
2022-08-05T17:53:54.953Z,13.10
2022-08-05T17:56:28.454Z,13.03
2022-08-05T17:58:57.059Z,12.99
2022-08-05T18:01:25.180Z,12.94
2022-08-05T18:04:04.742Z,12.91
2022-08-05T18:06:36.150Z,12.87
2022-08-05T18:09:04.078Z,12.87
2022-08-05T18:11:37.622Z,12.78
2022-08-05T18:14:13.617Z,12.78
2022-08-05T18:16:52.030Z,12.73
2022-08-05T18:19:22.806Z,12.68
2022-08-05T18:22:08.673Z,12.63
2022-08-05T18:24:39.463Z,12.55
2022-08-05T18:27:12.571Z,12.53
2022-08-05T18:29:53.654Z,12.37
2022-08-05T18:32:27.957Z,12.25
2022-08-05T18:34:58.493Z,12.21
2022-08-05T18:37:34.321Z,12.37
2022-08-05T18:40:33.906Z,12.20
2022-08-05T18:43:00.123Z,12.29
2022-08-05T18:45:41.837Z,12.19
2022-08-05T18:48:17.405Z,12.23
2022-08-05T18:52:05.768Z,12.13
2022-08-05T18:54:06.411Z,12.14
2022-08-05T18:56:38.098Z,12.14
2022-08-05T18:59:44.254Z,12.10
2022-08-05T19:01:58.156Z,12.11
2022-08-05T19:04:28.207Z,12.07
2022-08-05T19:06:56.182Z,12.03
2022-08-05T19:09:24.249Z,11.99
2022-08-05T19:12:00.726Z,11.86
2022-08-05T19:14:59.136Z,11.87
2022-08-05T19:17:20.560Z,11.84
2022-08-05T19:19:50.711Z,11.81
2022-08-05T19:22:22.863Z,11.64
2022-08-05T19:25:02.649Z,11.53
2022-08-05T19:27:31.773Z,11.41
2022-08-05T19:29:59.901Z,11.63
2022-08-05T19:32:28.284Z,11.61
2022-08-05T19:34:59.875Z,11.56
2022-08-05T19:37:47.365Z,11.58
2022-08-05T19:40:24.467Z,11.55
2022-08-05T19:43:00.958Z,11.55
2022-08-05T19:45:36.761Z,11.58
2022-08-05T19:48:06.039Z,11.58
2022-08-05T19:50:35.666Z,11.51
2022-08-05T19:53:09.502Z,11.58
2022-08-05T19:56:13.728Z,11.59
2022-08-05T19:58:29.299Z,11.59
2022-08-05T20:01:02.069Z,11.59
2022-08-05T20:03:38.684Z,11.55
2022-08-05T20:06:14.815Z,11.53
2022-08-05T20:08:47.192Z,11.44
2022-08-05T20:11:18.039Z,11.41
2022-08-05T20:13:58.292Z,11.43
2022-08-05T20:16:37.981Z,11.32
2022-08-05T20:19:06.313Z,11.32
2022-08-05T20:21:34.963Z,11.23
2022-08-05T20:24:07.199Z,11.29
2022-08-05T20:26:40.041Z,11.24
2022-08-05T20:29:26.885Z,11.20
2022-08-05T20:31:58.247Z,11.19
2022-08-05T20:34:27.979Z,11.17
2022-08-05T20:36:55.982Z,11.14
2022-08-05T20:39:24.041Z,11.11
2022-08-05T20:41:53.203Z,11.08
2022-08-05T20:44:30.282Z,11.02
2022-08-05T20:47:02.185Z,10.93
2022-08-05T20:49:37.844Z,10.93
2022-08-05T20:52:08.243Z,10.88
2022-08-05T20:54:59.518Z,10.90
2022-08-05T20:57:45.038Z,10.91
2022-08-05T21:00:41.502Z,10.89
2022-08-05T21:03:06.889Z,10.40
2022-08-05T21:05:54.093Z,10.84
2022-08-05T21:08:33.093Z,10.84
2022-08-05T21:11:12.545Z,10.83
2022-08-05T21:13:48.252Z,10.81
2022-08-05T21:16:30.755Z,10.75
2022-08-05T21:19:03.603Z,10.72
2022-08-05T21:21:39.533Z,10.67
2022-08-05T21:24:15.609Z,10.64
2022-08-05T21:26:53.309Z,10.56
2022-08-05T21:29:32.236Z,10.56
2022-08-05T21:32:04.659Z,10.52
2022-08-05T21:34:35.396Z,10.45
2022-08-05T21:37:05.573Z,10.46
2022-08-05T21:39:34.458Z,10.45
2022-08-05T21:42:05.655Z,10.42
2022-08-05T21:44:34.564Z,10.41
2022-08-05T21:47:02.920Z,10.39
2022-08-05T21:49:56.841Z,10.32
2022-08-05T21:52:28.005Z,10.35
2022-08-05T21:55:06.376Z,10.33
2022-08-05T21:57:36.687Z,10.31
2022-08-05T22:00:13.647Z,10.25
2022-08-05T22:02:43.111Z,10.23
2022-08-05T22:05:13.627Z,10.23
2022-08-05T22:07:59.359Z,10.15
2022-08-05T22:10:30.912Z,10.06
2022-08-05T22:13:08.842Z,10.00
2022-08-05T22:16:02.383Z,10.07
2022-08-05T22:18:41.243Z,10.06
2022-08-05T22:21:19.385Z,10.04
2022-08-05T22:24:08.960Z,9.99
2022-08-05T22:26:59.869Z,10.00
2022-08-05T22:29:30.842Z,9.96
2022-08-05T22:32:02.797Z,9.94
2022-08-05T22:34:33.352Z,9.85
2022-08-05T22:37:03.900Z,9.89
2022-08-05T22:39:35.026Z,9.90
2022-08-05T22:42:12.476Z,9.87
2022-08-05T22:44:56.246Z,9.83
2022-08-05T22:47:30.654Z,9.88
2022-08-05T22:50:21.473Z,9.66
2022-08-05T22:52:53.878Z,9.83
2022-08-05T22:55:23.283Z,9.81
2022-08-05T22:57:53.502Z,9.86
2022-08-05T23:00:26.491Z,9.87
2022-08-05T23:02:56.893Z,9.88
2022-08-05T23:05:26.461Z,9.88
2022-08-05T23:07:55.350Z,9.88
2022-08-05T23:10:24.297Z,9.94
2022-08-05T23:12:55.761Z,9.95
2022-08-05T23:15:30.020Z,9.94
2022-08-05T23:18:06.035Z,10.10
2022-08-05T23:20:40.070Z,10.21
2022-08-05T23:23:11.090Z,10.23
2022-08-05T23:25:52.910Z,10.27
2022-08-05T23:28:28.667Z,10.43
2022-08-05T23:31:15.756Z,10.57
2022-08-05T23:34:04.853Z,10.71
2022-08-05T23:36:40.324Z,10.79
2022-08-05T23:39:17.471Z,10.97
2022-08-05T23:42:01.160Z,11.13
2022-08-05T23:44:31.689Z,11.27
2022-08-05T23:47:14.524Z,11.18
2022-08-05T23:49:47.716Z,11.55
2022-08-05T23:52:28.358Z,11.70
2022-08-05T23:55:22.649Z,11.85
2022-08-05T23:57:59.030Z,12.01
